WetterOnline ( https://www.wetteronline.de )

Wetter aktuell Burtscheid

Aktuelles Wetter: Deuselbach (483m)

6-stündlich | Neueste Meldungen
Ortszeit Temperatur Wetter
Mo, 16.09. 2:00 12.5° C wolkenlos
So, 15.09. 20:00 19.0° C wolkenlos
So, 15.09. 14:00 21.7° C wolkenlos
So, 15.09. 8:00 12.1° C wolkenlos
So, 15.09. 2:00 13.1° C leicht bewölkt
Sa, 14.09. 20:00 17.9° C wolkenlos
Sa, 14.09. 14:00 20.4° C wolkenlos
Sa, 14.09. 8:00 12.6° C wolkig
Ortszeit Temperatur Wetter
Mo, 16.09. 6:30 11.4° C wolkig
Mo, 16.09. 6:20 11.4° C wolkig
Mo, 16.09. 6:10 11.3° C bewölkt
Mo, 16.09. 6:00 11.6° C bedeckt
Mo, 16.09. 5:50 11.6° C bedeckt
Mo, 16.09. 5:40 11.2° C bewölkt
Mo, 16.09. 5:30 11.5° C wolkig
Mo, 16.09. 5:00 12.2° C bewölkt
Mo, 16.09. 4:30 11.0° C fast wolkenlos
Mo, 16.09. 4:00 12.8° C wolkenlos
Mo, 16.09. 3:30 12.5° C wolkenlos
Ortszeit Relative Feuchte Sichtweite
Mo, 16.09. 2:00 69% 65 km
So, 15.09. 20:00 57% >70 km
So, 15.09. 14:00 54% >70 km
So, 15.09. 8:00 92% 45 km
So, 15.09. 2:00 78% 45 km
Sa, 14.09. 20:00 64% 60 km
Sa, 14.09. 14:00 52% 60 km
Sa, 14.09. 8:00 88% 50 km
Ortszeit Relative Feuchte Sichtweite
Mo, 16.09. 6:30 75% 65 km
Mo, 16.09. 6:20 75% -
Mo, 16.09. 6:10 75% -
Mo, 16.09. 6:00 74% 55 km
Mo, 16.09. 5:50 74% -
Mo, 16.09. 5:40 76% -
Mo, 16.09. 5:30 74% 65 km
Mo, 16.09. 5:00 71% >70 km
Mo, 16.09. 4:30 77% 60 km
Mo, 16.09. 4:00 69% 60 km
Mo, 16.09. 3:30 69% 65 km
Ortszeit Niederschlagsmenge Niederschlagsart
Mo, 16.09. 2:00 0.0 l/m2 in 6 Std. -
So, 15.09. 20:00 0.0 l/m2 in 12 Std. -
So, 15.09. 14:00 0.0 l/m2 in 6 Std. -
So, 15.09. 8:00 0.0 l/m2 in 12 Std. -
So, 15.09. 2:00 0.0 l/m2 in 6 Std. -
Sa, 14.09. 20:00 0.0 l/m2 in 12 Std. -
Sa, 14.09. 14:00 0.0 l/m2 in 6 Std. -
Sa, 14.09. 8:00 0.0 l/m2 in 12 Std. -
Ortszeit Niederschlagsmenge Niederschlagsart
Mo, 16.09. 6:30 0.0 l/m2 in 1 Std. -
Mo, 16.09. 6:20 keine Meldung -
Mo, 16.09. 6:10 keine Meldung -
Mo, 16.09. 6:00 0.0 l/m2 in 1 Std. -
Mo, 16.09. 5:50 keine Meldung -
Mo, 16.09. 5:40 keine Meldung -
Mo, 16.09. 5:30 0.0 l/m2 in 1 Std. -
Mo, 16.09. 5:00 0.0 l/m2 in 1 Std. -
Mo, 16.09. 4:30 0.0 l/m2 in 1 Std. -
Mo, 16.09. 4:00 0.0 l/m2 in 1 Std. -
Mo, 16.09. 3:30 0.0 l/m2 in 1 Std. -
Ortszeit Stärke Spitze Richtung
km/h Bft. km/h Grad Sektor
Mo, 16.09. 2:00 6 1 11 140° SO
So, 15.09. 20:00 4 1 29 220° SW
So, 15.09. 14:00 14 3 22 330° NW
So, 15.09. 8:00 6 1 7 180° S
So, 15.09. 2:00 4 1 14 210° SW
Sa, 14.09. 20:00 11 2 22 40° NO
Sa, 14.09. 14:00 11 2 24 90° O
Sa, 14.09. 8:00 9 2 28 60° NO
Ortszeit Stärke Spitze Richtung
km/h Bft. km/h Grad Sektor
Mo, 16.09. 6:30 7 2 11 170° S
Mo, 16.09. 6:20 7 2 - 170° S
Mo, 16.09. 6:10 7 2 - 160° S
Mo, 16.09. 6:00 7 2 11 110° O
Mo, 16.09. 5:50 7 2 - 110° O
Mo, 16.09. 5:40 7 2 - 130° SO
Mo, 16.09. 5:30 7 2 11 160° S
Mo, 16.09. 5:00 7 2 9 160° S
Mo, 16.09. 4:30 7 2 11 120° SO
Mo, 16.09. 4:00 6 1 9 150° SO
Mo, 16.09. 3:30 7 2 11 150° SO
Ortszeit Untergrenze Bedeckung Gattung
total tief tief mittel hoch
Mo, 16.09. 2:00 - 0/8 0/8 - - -
So, 15.09. 20:00 - 0/8 0/8 - - -
So, 15.09. 14:00 - 0/8 0/8 - - -
So, 15.09. 8:00 - 0/8 0/8 - - -
So, 15.09. 2:00 10500 m 5/8 0/8 - - -
Sa, 14.09. 20:00 10500 m 0/8 0/8 - - -
Sa, 14.09. 14:00 - 0/8 0/8 - - -
Sa, 14.09. 8:00 9000 m 7/8 0/8 - - -
Ortszeit Bedeckungsgrad in Achtel und Wolkenuntergrenze
Mo, 16.09. 6:30 1(5400m) 4(7800m) 7(10500m)
Mo, 16.09. 6:20 1(5400m) 4(7800m) 7(10500m)
Mo, 16.09. 6:10 3(5100m) 7(6300m) 8(10500m)
Mo, 16.09. 6:00 5(5100m) 8(6000m) 8(9000m)
Mo, 16.09. 5:50 5(5100m) 8(6000m) 8(9000m)
Mo, 16.09. 5:40 5(5700m) 7(6300m) 7(9000m)
Mo, 16.09. 5:30 5(6600m) 7(7200m) 7(7800m)
Mo, 16.09. 5:00 5(6600m) 7(7200m) 8(8700m)
Mo, 16.09. 4:30 1(7500m) 5(8700m)
Mo, 16.09. 4:00 keine Wolken
Mo, 16.09. 3:30 keine Wolken
Ortszeit Luftdruck NN (hPa) Tendenz (hPa in 3 Std.)
Mo, 16.09. 2:00 1023 - 0,4
So, 15.09. 20:00 1022 - 0,5
So, 15.09. 14:00 1023 - 0,9
So, 15.09. 8:00 1026 - 0,1
So, 15.09. 2:00 1027 - 0,9
Sa, 14.09. 20:00 1028 - 0,3
Sa, 14.09. 14:00 1030 - 1,0
Sa, 14.09. 8:00 1033 + 0,2
Ortszeit Luftdruck NN (hPa) Tendenz (hPa in 3 Std.)
Mo, 16.09. 6:30 1022 - 0,8
Mo, 16.09. 6:20 1022 keine Meldung
Mo, 16.09. 6:10 1022 keine Meldung
Mo, 16.09. 6:00 1022 - 0,9
Mo, 16.09. 5:50 1022 keine Meldung
Mo, 16.09. 5:40 1022 keine Meldung
Mo, 16.09. 5:30 1022 - 0,8
Mo, 16.09. 5:00 1022 - 0,7
Mo, 16.09. 4:30 1022 - 0,6
Mo, 16.09. 4:00 1022 - 0,7
Mo, 16.09. 3:30 1022 - 0,7
Ortszeit Schneehöhe (cm)
Mo, 16.09. 2:00 -
So, 15.09. 20:00 -
So, 15.09. 14:00 -
So, 15.09. 8:00 -
So, 15.09. 2:00 -
Sa, 14.09. 20:00 -
Sa, 14.09. 14:00 -
Sa, 14.09. 8:00 -
Ortszeit Schneehöhe (cm)
Mo, 16.09. 6:30 -
Mo, 16.09. 6:20 -
Mo, 16.09. 6:10 -
Mo, 16.09. 6:00 -
Mo, 16.09. 5:50 -
Mo, 16.09. 5:40 -
Mo, 16.09. 5:30 -
Mo, 16.09. 5:00 -
Mo, 16.09. 4:30 -
Mo, 16.09. 4:00 -
Mo, 16.09. 3:30 -
Link zu dieser Seite / Seite empfehlen

Das Wetter in ...